Time;durP1;ratioP1;P1;durP2;ratioP2;P2;SDS_P1;SDS_P2;PMS_P1;PMS_P2;Temp;Humidity;BMP_temperature;BMP_pressure;BME280_temperature;BME280_humidity;BME280_pressure;Samples;Min_cycle;Max_cycle;Signal;HPM_P1;HPM_P2
2022/07/30 00:01:05;;;;;;;7.80;2.92;;;;;;;;;;4943354;28;20077;-79
2022/07/30 00:03:32;;;;;;;7.13;3.33;;;;;;;;;;4942170;28;20043;-79
2022/07/30 00:05:57;;;;;;;4.57;3.30;;;;;;;;;;4951514;28;20027;-79
2022/07/30 00:08:23;;;;;;;6.63;2.97;;;;;;;;;;4954046;28;20027;-75
2022/07/30 00:10:49;;;;;;;6.53;2.97;;;;;;;;;;4932443;28;20119;-79
2022/07/30 00:13:15;;;;;;;5.70;3.17;;;;;;;;;;4945197;28;20036;-76
2022/07/30 00:15:40;;;;;;;4.20;3.03;;;;;;;;;;4934587;28;20098;-77
2022/07/30 00:18:06;;;;;;;3.85;3.13;;;;;;;;;;4932339;29;20043;-77
2022/07/30 00:20:31;;;;;;;5.97;3.33;;;;;;;;;;4935201;29;20041;-83
2022/07/30 00:22:57;;;;;;;9.85;3.85;;;;;;;;;;4952687;28;20047;-78
2022/07/30 00:25:23;;;;;;;7.75;3.38;;;;;;;;;;4937494;28;20048;-78
2022/07/30 00:27:48;;;;;;;5.88;3.10;;;;;;;;;;4933808;28;20046;-77
2022/07/30 00:30:14;;;;;;;5.68;3.47;;;;;;;;;;4936137;28;20039;-78
2022/07/30 00:32:39;;;;;;;9.80;3.55;;;;;;;;;;4948523;28;20039;-76
2022/07/30 00:35:05;;;;;;;9.95;4.38;;;;;;;;;;4935539;28;20043;-79
2022/07/30 00:37:31;;;;;;;3.53;3.20;;;;;;;;;;4932978;29;20064;-77
2022/07/30 00:39:56;;;;;;;4.78;3.28;;;;;;;;;;4957155;28;20061;-78
2022/07/30 00:42:24;;;;;;;5.88;3.33;;;;;;;;;;4956267;28;20488;-75
2022/07/30 00:44:53;;;;;;;8.63;3.83;;;;;;;;;;4932023;28;20480;-79
2022/07/30 00:47:18;;;;;;;9.48;4.03;;;;;;;;;;4954653;28;20026;-78
2022/07/30 00:49:43;;;;;;;9.13;4.07;;;;;;;;;;4936032;28;20511;-80
2022/07/30 00:52:09;;;;;;;8.57;3.58;;;;;;;;;;4946747;28;20123;-78
2022/07/30 00:54:34;;;;;;;6.75;3.60;;;;;;;;;;4946567;28;20441;-77
2022/07/30 00:57:00;;;;;;;9.60;3.85;;;;;;;;;;4953680;28;20067;-79
2022/07/30 00:59:27;;;;;;;6.68;4.00;;;;;;;;;;4950931;28;20114;-78
2022/07/30 01:01:53;;;;;;;7.03;4.15;;;;;;;;;;4932195;28;20036;-75
2022/07/30 01:04:18;;;;;;;11.32;4.20;;;;;;;;;;4934585;28;20043;-75
2022/07/30 01:06:44;;;;;;;8.30;4.10;;;;;;;;;;4931084;28;20036;-75
2022/07/30 01:09:09;;;;;;;10.88;3.92;;;;;;;;;;4932150;28;20058;-74
2022/07/30 01:11:37;;;;;;;6.97;4.18;;;;;;;;;;4950993;28;20030;-77
2022/07/30 01:14:08;;;;;;;8.00;4.20;;;;;;;;;;4954446;28;20142;-78
2022/07/30 01:16:35;;;;;;;6.88;3.85;;;;;;;;;;4934636;28;20085;-75
2022/07/30 01:22:15;;;;;;;9.60;4.00;;;;;;;;;;4938295;28;20552;-75
2022/07/30 01:24:54;;;;;;;7.03;3.35;;;;;;;;;;4933707;28;20075;-75
2022/07/30 01:27:20;;;;;;;4.75;3.30;;;;;;;;;;4939257;28;20475;-74
2022/07/30 01:29:48;;;;;;;12.05;4.03;;;;;;;;;;4954043;28;20082;-74
2022/07/30 01:32:15;;;;;;;5.05;3.70;;;;;;;;;;4954387;28;20065;-76
2022/07/30 01:34:42;;;;;;;7.78;3.60;;;;;;;;;;4948585;28;20114;-76
2022/07/30 01:37:09;;;;;;;9.48;3.92;;;;;;;;;;4968004;28;20531;-76
2022/07/30 01:39:36;;;;;;;7.68;4.57;;;;;;;;;;4950312;28;20122;-75
2022/07/30 01:42:04;;;;;;;7.22;4.10;;;;;;;;;;4948387;28;20044;-75
2022/07/30 01:44:30;;;;;;;7.05;3.72;;;;;;;;;;4933725;29;20039;-77
2022/07/30 01:46:56;;;;;;;9.15;4.00;;;;;;;;;;4950288;28;20032;-77
2022/07/30 01:49:24;;;;;;;5.28;4.03;;;;;;;;;;4937027;28;20043;-75
2022/07/30 01:51:50;;;;;;;6.20;3.92;;;;;;;;;;4941201;28;20042;-75
2022/07/30 01:54:17;;;;;;;6.45;3.60;;;;;;;;;;4948781;28;20411;-75
2022/07/30 01:56:45;;;;;;;5.60;2.85;;;;;;;;;;4930816;28;20395;-75
2022/07/30 01:59:12;;;;;;;4.38;3.33;;;;;;;;;;4952351;28;20082;-75
2022/07/30 02:01:38;;;;;;;9.07;3.70;;;;;;;;;;4951099;28;20044;-76
2022/07/30 02:04:04;;;;;;;7.28;3.53;;;;;;;;;;4952189;28;20063;-75
2022/07/30 02:06:36;;;;;;;7.82;3.53;;;;;;;;;;4952562;28;20873;-75
2022/07/30 02:09:04;;;;;;;8.82;3.70;;;;;;;;;;4952993;28;20046;-76
2022/07/30 02:14:32;;;;;;;5.53;3.72;;;;;;;;;;4953936;28;20134;-76
2022/07/30 02:17:00;;;;;;;11.02;3.67;;;;;;;;;;4933584;28;20042;-75
2022/07/30 02:19:32;;;;;;;6.85;3.72;;;;;;;;;;4951793;28;20067;-75
2022/07/30 02:22:04;;;;;;;11.38;3.70;;;;;;;;;;4949641;28;20047;-76
2022/07/30 02:24:31;;;;;;;11.98;4.05;;;;;;;;;;4968076;28;20046;-74
2022/07/30 02:27:01;;;;;;;7.07;3.53;;;;;;;;;;4951776;28;20062;-76
2022/07/30 02:29:27;;;;;;;7.93;4.13;;;;;;;;;;4949070;28;20041;-76
2022/07/30 02:31:55;;;;;;;7.13;4.38;;;;;;;;;;4967587;28;20043;-76
2022/07/30 02:34:23;;;;;;;11.68;3.80;;;;;;;;;;4935347;28;20047;-76
2022/07/30 02:36:50;;;;;;;5.35;3.38;;;;;;;;;;4947473;28;20047;-75
2022/07/30 02:39:17;;;;;;;9.82;3.80;;;;;;;;;;4953119;28;20563;-76
2022/07/30 02:41:45;;;;;;;7.45;3.50;;;;;;;;;;4953063;28;20289;-75
2022/07/30 02:44:11;;;;;;;8.35;3.90;;;;;;;;;;4934100;29;20086;-75
2022/07/30 02:46:38;;;;;;;9.68;4.00;;;;;;;;;;4949340;28;20039;-75
2022/07/30 02:49:04;;;;;;;6.03;4.18;;;;;;;;;;4954214;28;20160;-76
2022/07/30 02:51:31;;;;;;;6.18;3.85;;;;;;;;;;4950998;28;20044;-76
2022/07/30 02:53:58;;;;;;;6.13;3.85;;;;;;;;;;4948780;28;20027;-74
2022/07/30 02:56:26;;;;;;;8.05;4.07;;;;;;;;;;4938562;29;20159;-76
2022/07/30 02:58:53;;;;;;;8.82;4.10;;;;;;;;;;4929614;28;20036;-76
2022/07/30 03:01:21;;;;;;;7.03;3.90;;;;;;;;;;4935388;28;20035;-74
2022/07/30 03:03:47;;;;;;;9.30;3.78;;;;;;;;;;4934853;29;20038;-77
2022/07/30 03:06:14;;;;;;;7.88;3.78;;;;;;;;;;4934756;28;20053;-75
2022/07/30 03:08:44;;;;;;;8.30;3.95;;;;;;;;;;4933152;29;20043;-75
2022/07/30 03:11:16;;;;;;;8.38;4.32;;;;;;;;;;4981358;28;20122;-77
2022/07/30 03:13:41;;;;;;;14.87;4.53;;;;;;;;;;4936493;28;20424;-77
2022/07/30 03:16:09;;;;;;;9.55;4.50;;;;;;;;;;4943942;28;20295;-75
2022/07/30 03:18:38;;;;;;;5.18;3.78;;;;;;;;;;4946688;28;20036;-75
2022/07/30 03:21:07;;;;;;;8.02;4.20;;;;;;;;;;4936715;28;20535;-74
2022/07/30 03:23:36;;;;;;;14.80;4.65;;;;;;;;;;4949143;28;20570;-75
2022/07/30 03:26:03;;;;;;;6.13;4.30;;;;;;;;;;4936153;28;20812;-76
2022/07/30 03:28:35;;;;;;;7.03;4.63;;;;;;;;;;4944559;28;20044;-76
2022/07/30 03:31:01;;;;;;;9.23;4.57;;;;;;;;;;4950616;28;20050;-76
2022/07/30 03:33:27;;;;;;;11.65;4.82;;;;;;;;;;4952510;28;20447;-76
2022/07/30 03:35:54;;;;;;;10.10;4.40;;;;;;;;;;4949547;28;20066;-76
2022/07/30 03:38:20;;;;;;;10.18;4.65;;;;;;;;;;4932729;29;20031;-75
2022/07/30 03:40:45;;;;;;;11.55;4.90;;;;;;;;;;4948527;28;20420;-75
2022/07/30 03:43:12;;;;;;;11.70;4.50;;;;;;;;;;4938874;28;20036;-74
2022/07/30 03:45:41;;;;;;;9.05;4.68;;;;;;;;;;4935058;28;20043;-78
2022/07/30 03:48:08;;;;;;;7.25;4.55;;;;;;;;;;4948063;28;20043;-75
2022/07/30 03:50:38;;;;;;;7.15;4.85;;;;;;;;;;4932599;29;20071;-74
2022/07/30 03:53:04;;;;;;;12.30;4.45;;;;;;;;;;4951794;28;20035;-75
2022/07/30 03:55:31;;;;;;;8.05;4.82;;;;;;;;;;4936976;28;20103;-76
2022/07/30 03:57:56;;;;;;;8.20;4.90;;;;;;;;;;4940068;28;20174;-74
2022/07/30 04:00:22;;;;;;;11.18;4.65;;;;;;;;;;4948759;28;20450;-76
2022/07/30 04:02:48;;;;;;;8.85;4.70;;;;;;;;;;4932627;28;20031;-76
2022/07/30 04:05:14;;;;;;;12.65;4.85;;;;;;;;;;4930948;28;20039;-74
2022/07/30 04:07:40;;;;;;;8.52;4.22;;;;;;;;;;4932052;28;20066;-76
2022/07/30 04:10:06;;;;;;;8.10;4.80;;;;;;;;;;4944382;28;20063;-74
2022/07/30 04:12:32;;;;;;;11.30;4.93;;;;;;;;;;4950213;28;20042;-75
2022/07/30 04:14:58;;;;;;;15.20;5.32;;;;;;;;;;4948373;28;20031;-75
2022/07/30 04:17:32;;;;;;;7.72;4.75;;;;;;;;;;4933062;29;20038;-76
2022/07/30 04:20:02;;;;;;;7.57;4.93;;;;;;;;;;4928984;28;20036;-76
2022/07/30 04:22:31;;;;;;;9.15;4.65;;;;;;;;;;4947119;28;20047;-75
2022/07/30 04:24:58;;;;;;;7.20;4.72;;;;;;;;;;4947717;28;20049;-73
2022/07/30 04:27:24;;;;;;;9.93;5.22;;;;;;;;;;4949174;28;20053;-76
2022/07/30 04:29:52;;;;;;;13.60;4.97;;;;;;;;;;4948087;28;20467;-74
2022/07/30 04:32:18;;;;;;;13.02;5.40;;;;;;;;;;4964133;28;20100;-77
2022/07/30 04:34:51;;;;;;;12.30;4.80;;;;;;;;;;4948518;28;20043;-76
2022/07/30 04:37:18;;;;;;;7.47;5.00;;;;;;;;;;4951446;28;20066;-75
2022/07/30 04:39:44;;;;;;;8.38;4.65;;;;;;;;;;4946463;28;20043;-76
2022/07/30 04:42:09;;;;;;;7.43;4.85;;;;;;;;;;4952672;28;20043;-76
2022/07/30 04:44:36;;;;;;;6.68;4.57;;;;;;;;;;4951787;28;20468;-76
2022/07/30 04:47:02;;;;;;;10.88;5.07;;;;;;;;;;4932768;28;20047;-76
2022/07/30 04:49:28;;;;;;;8.15;4.50;;;;;;;;;;4932267;28;20058;-76
2022/07/30 04:51:55;;;;;;;7.20;4.70;;;;;;;;;;4945564;28;20036;-75
2022/07/30 04:54:23;;;;;;;10.73;5.00;;;;;;;;;;4926472;28;20048;-75
2022/07/30 04:56:50;;;;;;;7.38;4.30;;;;;;;;;;4929913;28;20105;-74
2022/07/30 04:59:16;;;;;;;8.80;4.90;;;;;;;;;;4952260;28;20420;-74
2022/07/30 05:01:45;;;;;;;6.53;4.53;;;;;;;;;;4947510;28;20096;-75
2022/07/30 05:04:11;;;;;;;6.63;4.68;;;;;;;;;;4951061;28;20043;-76
2022/07/30 05:06:38;;;;;;;7.75;4.80;;;;;;;;;;4946448;28;20078;-77
2022/07/30 05:09:05;;;;;;;9.15;4.60;;;;;;;;;;4948688;28;20043;-75
2022/07/30 05:11:30;;;;;;;7.22;4.80;;;;;;;;;;4951842;28;20027;-75
2022/07/30 05:13:56;;;;;;;8.63;4.90;;;;;;;;;;4950333;28;20062;-75
2022/07/30 05:16:24;;;;;;;9.73;5.13;;;;;;;;;;4950244;28;20599;-76
2022/07/30 05:18:49;;;;;;;19.92;5.60;;;;;;;;;;4949194;28;20043;-76
2022/07/30 05:21:16;;;;;;;5.68;4.25;;;;;;;;;;4944656;28;20044;-74
2022/07/30 05:23:42;;;;;;;10.57;5.63;;;;;;;;;;4931708;28;20050;-75
2022/07/30 05:26:07;;;;;;;8.88;4.90;;;;;;;;;;4948210;28;20520;-74
2022/07/30 05:28:33;;;;;;;8.32;4.80;;;;;;;;;;4949699;28;20500;-75
2022/07/30 05:30:58;;;;;;;6.97;5.25;;;;;;;;;;4950023;28;20603;-73
2022/07/30 05:33:25;;;;;;;11.57;5.05;;;;;;;;;;4948730;28;20514;-75
2022/07/30 05:35:50;;;;;;;10.75;5.80;;;;;;;;;;4952441;28;20038;-77
2022/07/30 05:38:17;;;;;;;15.43;5.72;;;;;;;;;;4953408;28;20038;-75
2022/07/30 05:40:45;;;;;;;10.45;5.15;;;;;;;;;;4967163;28;20039;-74
2022/07/30 05:43:11;;;;;;;15.07;5.25;;;;;;;;;;4951777;28;20035;-75
2022/07/30 05:45:36;;;;;;;9.88;5.00;;;;;;;;;;4947208;28;20089;-74
2022/07/30 05:48:03;;;;;;;11.80;4.40;;;;;;;;;;4947544;28;20043;-76
2022/07/30 05:50:29;;;;;;;9.18;4.63;;;;;;;;;;4948553;28;20027;-76
2022/07/30 05:52:57;;;;;;;7.00;4.57;;;;;;;;;;4945965;28;20035;-74
2022/07/30 05:55:23;;;;;;;6.65;4.60;;;;;;;;;;4950964;28;20127;-73
2022/07/30 05:57:50;;;;;;;14.88;4.80;;;;;;;;;;4946847;28;20241;-76
2022/07/30 06:00:15;;;;;;;11.25;4.43;;;;;;;;;;4948188;28;20534;-73
2022/07/30 06:02:41;;;;;;;11.40;4.90;;;;;;;;;;4949175;28;20027;-74
2022/07/30 06:05:07;;;;;;;14.25;4.38;;;;;;;;;;4927056;29;20062;-75
2022/07/30 06:07:33;;;;;;;13.75;4.63;;;;;;;;;;4949381;28;20541;-74
2022/07/30 06:09:59;;;;;;;7.95;4.45;;;;;;;;;;4939796;28;20457;-74
2022/07/30 06:12:26;;;;;;;7.70;4.35;;;;;;;;;;4937206;28;20066;-75
2022/07/30 06:14:51;;;;;;;9.18;4.32;;;;;;;;;;4931685;28;20027;-74
2022/07/30 06:17:17;;;;;;;9.07;4.57;;;;;;;;;;4933776;29;20034;-76
2022/07/30 06:19:42;;;;;;;23.10;6.60;;;;;;;;;;4945780;28;20443;-73
2022/07/30 06:22:07;;;;;;;15.93;5.05;;;;;;;;;;4942317;28;20139;-74
2022/07/30 06:24:33;;;;;;;13.27;4.40;;;;;;;;;;4939771;28;20041;-74
2022/07/30 06:26:58;;;;;;;7.35;4.80;;;;;;;;;;4939356;28;20118;-74
2022/07/30 06:29:25;;;;;;;9.45;4.57;;;;;;;;;;4958244;28;20502;-73
2022/07/30 06:31:50;;;;;;;9.32;4.72;;;;;;;;;;4938558;28;20403;-72
2022/07/30 06:34:15;;;;;;;7.90;4.25;;;;;;;;;;4944527;28;20040;-73
2022/07/30 06:36:41;;;;;;;11.55;5.00;;;;;;;;;;4938003;28;20039;-75
2022/07/30 06:39:06;;;;;;;12.90;4.65;;;;;;;;;;4936422;28;20740;-74
2022/07/30 06:41:32;;;;;;;7.93;4.30;;;;;;;;;;4934531;29;20027;-73
2022/07/30 06:43:57;;;;;;;11.80;4.90;;;;;;;;;;4951746;28;20373;-75
2022/07/30 06:46:22;;;;;;;8.45;4.30;;;;;;;;;;4951747;28;20102;-73
2022/07/30 06:48:48;;;;;;;8.05;4.43;;;;;;;;;;4950667;28;20047;-72
2022/07/30 06:51:13;;;;;;;9.05;4.50;;;;;;;;;;4948111;28;20043;-72
2022/07/30 06:53:39;;;;;;;15.65;7.22;;;;;;;;;;4950511;28;20151;-72
2022/07/30 06:56:04;;;;;;;11.30;4.88;;;;;;;;;;4952554;28;20066;-74
2022/07/30 06:58:29;;;;;;;9.00;4.05;;;;;;;;;;4952923;28;20035;-73
2022/07/30 07:00:55;;;;;;;11.02;4.90;;;;;;;;;;4950604;28;20039;-72
2022/07/30 07:03:20;;;;;;;7.53;4.35;;;;;;;;;;4954818;28;20041;-73
2022/07/30 07:05:46;;;;;;;9.25;4.20;;;;;;;;;;4953276;28;20034;-73
2022/07/30 07:08:11;;;;;;;9.38;4.47;;;;;;;;;;4955089;28;20042;-74
2022/07/30 07:10:37;;;;;;;14.98;4.60;;;;;;;;;;4951982;28;20721;-73
2022/07/30 07:13:03;;;;;;;12.48;5.15;;;;;;;;;;4951301;28;20081;-73
2022/07/30 07:15:28;;;;;;;9.20;5.18;;;;;;;;;;4947370;28;20665;-72
2022/07/30 07:17:54;;;;;;;14.07;4.75;;;;;;;;;;4934613;28;20034;-74
2022/07/30 07:20:19;;;;;;;9.25;4.68;;;;;;;;;;4952079;28;20110;-73
2022/07/30 07:22:44;;;;;;;11.25;4.75;;;;;;;;;;4935466;28;20067;-75
2022/07/30 07:25:10;;;;;;;6.65;4.28;;;;;;;;;;4961689;28;20054;-73
2022/07/30 07:27:36;;;;;;;8.80;4.45;;;;;;;;;;4949583;28;20395;-72
2022/07/30 07:30:02;;;;;;;8.68;3.90;;;;;;;;;;4947946;28;20055;-72
2022/07/30 07:32:28;;;;;;;7.07;4.20;;;;;;;;;;4982199;28;20178;-72
2022/07/30 07:34:53;;;;;;;8.32;4.22;;;;;;;;;;4951250;28;20126;-74
2022/07/30 07:37:19;;;;;;;10.73;4.28;;;;;;;;;;4951266;28;20506;-74
2022/07/30 07:39:44;;;;;;;7.82;4.30;;;;;;;;;;4947430;28;20079;-72
2022/07/30 07:42:09;;;;;;;11.48;4.78;;;;;;;;;;4950825;28;20093;-73
2022/07/30 07:44:35;;;;;;;8.20;5.03;;;;;;;;;;4950370;28;20527;-73
2022/07/30 07:47:00;;;;;;;8.80;4.35;;;;;;;;;;4949438;28;20042;-72
2022/07/30 07:49:25;;;;;;;8.45;4.20;;;;;;;;;;4940133;28;20072;-73
2022/07/30 07:51:51;;;;;;;10.07;4.55;;;;;;;;;;4942263;28;20045;-72
2022/07/30 07:54:16;;;;;;;7.78;4.28;;;;;;;;;;4953260;28;20050;-73
2022/07/30 07:56:42;;;;;;;7.90;4.13;;;;;;;;;;4949522;28;20027;-72
2022/07/30 07:59:07;;;;;;;7.95;4.53;;;;;;;;;;4953911;28;20126;-71
2022/07/30 08:01:33;;;;;;;7.95;4.28;;;;;;;;;;4952747;28;20499;-72
2022/07/30 08:03:58;;;;;;;6.47;3.45;;;;;;;;;;4950177;28;20557;-74
2022/07/30 08:06:24;;;;;;;5.32;3.53;;;;;;;;;;4951730;28;20082;-73
2022/07/30 08:08:49;;;;;;;8.85;3.97;;;;;;;;;;4951956;28;20087;-74
2022/07/30 08:11:14;;;;;;;9.48;4.10;;;;;;;;;;4950712;28;20468;-75
2022/07/30 08:13:40;;;;;;;5.28;3.83;;;;;;;;;;4952219;28;20447;-75
2022/07/30 08:16:08;;;;;;;6.18;3.83;;;;;;;;;;4939886;28;20047;-74
2022/07/30 08:18:35;;;;;;;8.27;4.40;;;;;;;;;;4932686;28;20131;-74
2022/07/30 08:21:00;;;;;;;6.25;3.92;;;;;;;;;;4934104;28;20107;-73
2022/07/30 08:23:25;;;;;;;9.85;4.30;;;;;;;;;;4950828;28;20440;-73
2022/07/30 08:25:51;;;;;;;9.27;4.15;;;;;;;;;;4949027;28;20103;-73
2022/07/30 08:28:16;;;;;;;7.28;4.00;;;;;;;;;;4933788;28;20039;-73
2022/07/30 08:30:42;;;;;;;6.20;3.72;;;;;;;;;;4928951;29;20039;-74
2022/07/30 08:33:07;;;;;;;6.72;3.92;;;;;;;;;;4932173;28;20048;-73
2022/07/30 08:35:32;;;;;;;8.32;3.40;;;;;;;;;;4930860;29;20035;-73
2022/07/30 08:37:58;;;;;;;8.18;3.10;;;;;;;;;;4944075;28;20499;-73
2022/07/30 08:40:25;;;;;;;7.43;3.40;;;;;;;;;;4935678;28;20126;-73
2022/07/30 08:42:51;;;;;;;4.65;3.28;;;;;;;;;;4931268;28;20056;-73
2022/07/30 08:45:17;;;;;;;4.65;3.33;;;;;;;;;;4934174;28;20035;-73
2022/07/30 08:47:45;;;;;;;6.30;2.97;;;;;;;;;;4959000;28;20492;-73
2022/07/30 08:50:11;;;;;;;4.43;3.13;;;;;;;;;;4929731;29;20032;-72
2022/07/30 08:52:37;;;;;;;6.28;2.95;;;;;;;;;;4949182;28;20042;-73
2022/07/30 08:55:06;;;;;;;10.68;3.38;;;;;;;;;;4949604;28;20040;-73
2022/07/30 08:57:33;;;;;;;5.75;2.80;;;;;;;;;;4946921;28;20042;-73
2022/07/30 08:59:59;;;;;;;9.85;3.65;;;;;;;;;;4948054;28;20046;-73
2022/07/30 09:02:25;;;;;;;4.78;3.30;;;;;;;;;;4946677;28;20030;-74
2022/07/30 09:04:50;;;;;;;7.50;3.22;;;;;;;;;;4941969;28;20126;-73
2022/07/30 09:07:16;;;;;;;6.35;2.88;;;;;;;;;;4950010;28;20391;-73
2022/07/30 09:09:41;;;;;;;5.28;2.83;;;;;;;;;;4943480;28;22027;-73
2022/07/30 09:12:35;;;;;;;7.00;2.92;;;;;;;;;;4944905;28;20546;-71
2022/07/30 09:15:19;;;;;;;4.70;2.25;;;;;;;;;;4945757;28;20378;-71
2022/07/30 09:17:59;;;;;;;4.65;2.60;;;;;;;;;;4945611;28;20387;-74
2022/07/30 09:20:31;;;;;;;5.55;2.40;;;;;;;;;;4946692;28;20587;-73
2022/07/30 09:22:59;;;;;;;6.70;2.50;;;;;;;;;;4949589;28;20491;-71
2022/07/30 09:25:34;;;;;;;4.95;2.13;;;;;;;;;;4947036;28;20057;-70
2022/07/30 09:27:59;;;;;;;5.93;3.00;;;;;;;;;;4950178;28;20035;-72
2022/07/30 09:30:26;;;;;;;5.10;2.10;;;;;;;;;;4949964;28;20039;-72
2022/07/30 09:32:54;;;;;;;4.18;2.30;;;;;;;;;;4945654;28;20028;-71
2022/07/30 09:35:23;;;;;;;4.88;1.80;;;;;;;;;;4949710;28;20039;-74
2022/07/30 09:37:58;;;;;;;5.47;1.88;;;;;;;;;;4946126;28;20031;-72
2022/07/30 09:40:24;;;;;;;6.25;1.90;;;;;;;;;;4943670;28;20077;-73
2022/07/30 09:43:04;;;;;;;4.43;1.98;;;;;;;;;;4942417;28;20040;-73
2022/07/30 09:45:30;;;;;;;6.20;2.22;;;;;;;;;;4933648;28;20050;-73
2022/07/30 09:47:56;;;;;;;3.58;1.60;;;;;;;;;;4928550;28;20429;-72
2022/07/30 09:50:23;;;;;;;5.43;2.03;;;;;;;;;;4933620;29;20039;-72
2022/07/30 09:52:49;;;;;;;5.57;2.10;;;;;;;;;;4935126;28;20039;-73
2022/07/30 09:55:32;;;;;;;6.03;1.90;;;;;;;;;;4935604;28;20046;-72
2022/07/30 09:58:01;;;;;;;6.53;2.60;;;;;;;;;;4942002;28;20432;-71
2022/07/30 10:00:28;;;;;;;6.55;2.60;;;;;;;;;;4956466;28;20518;-71
2022/07/30 10:02:54;;;;;;;5.28;2.30;;;;;;;;;;4953850;28;20027;-72
2022/07/30 10:05:23;;;;;;;2.90;2.05;;;;;;;;;;4952864;28;20059;-76
2022/07/30 10:07:50;;;;;;;3.38;1.70;;;;;;;;;;4953074;28;20514;-72
2022/07/30 10:10:17;;;;;;;5.50;1.80;;;;;;;;;;4951457;28;20071;-73
2022/07/30 10:12:45;;;;;;;2.58;1.70;;;;;;;;;;4940846;28;20035;-73
2022/07/30 10:15:11;;;;;;;2.90;1.65;;;;;;;;;;4938364;28;20059;-73
2022/07/30 10:17:37;;;;;;;6.10;1.67;;;;;;;;;;4952633;28;20031;-75
2022/07/30 10:20:06;;;;;;;4.18;1.50;;;;;;;;;;4932882;28;20042;-74
2022/07/30 10:22:33;;;;;;;2.97;1.90;;;;;;;;;;4949433;28;20046;-75
2022/07/30 10:24:59;;;;;;;5.78;1.80;;;;;;;;;;4941486;28;20127;-72
2022/07/30 10:27:25;;;;;;;2.78;1.20;;;;;;;;;;4938940;28;20138;-72
2022/07/30 10:29:51;;;;;;;4.70;1.58;;;;;;;;;;4952237;28;20361;-72
2022/07/30 10:32:16;;;;;;;6.90;1.50;;;;;;;;;;4936041;29;20030;-70
2022/07/30 10:34:42;;;;;;;3.70;1.40;;;;;;;;;;4945795;28;20510;-70
2022/07/30 10:37:09;;;;;;;2.25;1.30;;;;;;;;;;4954337;28;20043;-72
2022/07/30 10:39:52;;;;;;;2.53;1.23;;;;;;;;;;4941418;28;20040;-72
2022/07/30 10:42:38;;;;;;;2.33;1.40;;;;;;;;;;4936975;28;20122;-72
2022/07/30 10:45:16;;;;;;;3.03;1.20;;;;;;;;;;4949332;28;20047;-70
2022/07/30 10:47:42;;;;;;;4.75;1.70;;;;;;;;;;4932113;28;20495;-72
2022/07/30 10:50:13;;;;;;;4.57;1.80;;;;;;;;;;4928553;29;20032;-72
2022/07/30 10:53:00;;;;;;;3.13;1.80;;;;;;;;;;4948159;28;20432;-72
2022/07/30 10:55:27;;;;;;;4.65;1.60;;;;;;;;;;4947954;28;20038;-70
2022/07/30 10:58:02;;;;;;;5.85;1.77;;;;;;;;;;4949855;28;20036;-70
2022/07/30 11:00:30;;;;;;;3.17;1.60;;;;;;;;;;4950025;28;20451;-69
2022/07/30 11:03:16;;;;;;;4.68;1.55;;;;;;;;;;4947878;28;20123;-73
2022/07/30 11:05:43;;;;;;;2.92;1.45;;;;;;;;;;4928803;28;20031;-73
2022/07/30 11:08:34;;;;;;;2.95;1.55;;;;;;;;;;4932612;29;20514;-72
2022/07/30 11:11:00;;;;;;;4.65;1.40;;;;;;;;;;4950342;28;20495;-70
2022/07/30 11:13:52;;;;;;;4.55;1.60;;;;;;;;;;4935944;28;20091;-71
2022/07/30 11:16:20;;;;;;;2.95;1.35;;;;;;;;;;4933947;28;20468;-76
2022/07/30 11:19:15;;;;;;;6.15;2.10;;;;;;;;;;4939499;28;20039;-72
2022/07/30 11:21:41;;;;;;;3.72;1.45;;;;;;;;;;4954434;28;20804;-75
2022/07/30 11:24:41;;;;;;;4.88;1.50;;;;;;;;;;4968292;28;20044;-72
2022/07/30 11:27:06;;;;;;;2.85;1.40;;;;;;;;;;4935115;28;20043;-70
2022/07/30 11:29:39;;;;;;;5.88;1.67;;;;;;;;;;4949080;28;20038;-73
2022/07/30 11:32:27;;;;;;;2.53;1.40;;;;;;;;;;4940462;28;20107;-72
2022/07/30 11:35:35;;;;;;;2.38;1.40;;;;;;;;;;4947267;28;20047;-70
2022/07/30 11:38:14;;;;;;;4.18;1.40;;;;;;;;;;4947868;28;20043;-74
2022/07/30 11:40:48;;;;;;;3.00;1.63;;;;;;;;;;4945814;28;20047;-72
2022/07/30 11:43:28;;;;;;;4.70;1.60;;;;;;;;;;4947985;28;20384;-72
2022/07/30 11:46:18;;;;;;;4.25;1.60;;;;;;;;;;4948949;28;20115;-72
2022/07/30 11:49:07;;;;;;;3.05;1.52;;;;;;;;;;4962592;28;20082;-72
2022/07/30 11:51:45;;;;;;;5.70;1.50;;;;;;;;;;4962024;28;20036;-72
2022/07/30 11:54:11;;;;;;;4.20;1.63;;;;;;;;;;4942945;28;20047;-70
2022/07/30 11:56:47;;;;;;;2.47;1.67;;;;;;;;;;4946471;28;20106;-72
2022/07/30 11:59:12;;;;;;;2.88;1.50;;;;;;;;;;4947933;28;20565;-71
2022/07/30 12:01:38;;;;;;;3.42;1.60;;;;;;;;;;4947655;28;20110;-71
2022/07/30 12:04:05;;;;;;;1.80;1.27;;;;;;;;;;4949194;28;20093;-73
2022/07/30 12:06:31;;;;;;;2.88;1.75;;;;;;;;;;4948486;28;20117;-75
2022/07/30 12:08:57;;;;;;;4.70;1.58;;;;;;;;;;4947570;28;20107;-73
2022/07/30 12:11:24;;;;;;;4.53;1.27;;;;;;;;;;4949080;28;20046;-73
2022/07/30 12:13:58;;;;;;;5.28;1.67;;;;;;;;;;4948907;28;20046;-73
2022/07/30 12:16:25;;;;;;;2.90;1.45;;;;;;;;;;4948363;28;20066;-70
2022/07/30 12:18:51;;;;;;;2.42;1.38;;;;;;;;;;4946965;28;20178;-70
2022/07/30 12:21:17;;;;;;;3.22;1.60;;;;;;;;;;4952221;28;20118;-73
2022/07/30 12:24:00;;;;;;;5.00;1.70;;;;;;;;;;4948978;28;20023;-70
2022/07/30 12:26:28;;;;;;;2.65;1.65;;;;;;;;;;4950043;28;20058;-74
2022/07/30 12:28:55;;;;;;;2.53;1.70;;;;;;;;;;4950109;28;20039;-72
2022/07/30 12:31:21;;;;;;;4.50;1.60;;;;;;;;;;4951420;28;20388;-72
2022/07/30 12:33:46;;;;;;;3.33;1.60;;;;;;;;;;4948691;28;20043;-71
2022/07/30 12:36:24;;;;;;;3.38;1.60;;;;;;;;;;4949407;28;20044;-73
2022/07/30 12:38:51;;;;;;;4.72;1.63;;;;;;;;;;4948062;28;20478;-72
2022/07/30 12:41:17;;;;;;;5.22;1.38;;;;;;;;;;4951501;28;20644;-72
2022/07/30 12:43:48;;;;;;;3.53;1.20;;;;;;;;;;4948123;28;20035;-71
2022/07/30 12:46:25;;;;;;;4.20;1.60;;;;;;;;;;4943920;28;20075;-70
2022/07/30 12:49:02;;;;;;;2.28;1.60;;;;;;;;;;4943620;28;20687;-72
2022/07/30 12:51:31;;;;;;;2.53;1.50;;;;;;;;;;4946599;28;20044;-73
2022/07/30 12:53:58;;;;;;;2.17;1.45;;;;;;;;;;4944270;28;20502;-73
2022/07/30 12:56:28;;;;;;;3.15;1.40;;;;;;;;;;4942098;28;20102;-72
2022/07/30 12:58:55;;;;;;;3.85;1.30;;;;;;;;;;4948556;28;20074;-71
2022/07/30 13:01:45;;;;;;;1.95;1.42;;;;;;;;;;4942663;28;20146;-71
2022/07/30 13:04:12;;;;;;;1.77;1.20;;;;;;;;;;4941850;28;20134;-74
2022/07/30 13:06:39;;;;;;;2.10;1.23;;;;;;;;;;4943132;28;20039;-72
2022/07/30 13:09:05;;;;;;;3.30;1.40;;;;;;;;;;4946855;28;20047;-71
2022/07/30 13:11:37;;;;;;;2.10;1.33;;;;;;;;;;4945733;28;20035;-73
2022/07/30 13:14:03;;;;;;;2.22;1.52;;;;;;;;;;4946442;28;20046;-70
2022/07/30 13:16:31;;;;;;;5.68;1.23;;;;;;;;;;4948447;28;20043;-74
2022/07/30 13:18:57;;;;;;;2.50;1.10;;;;;;;;;;4938669;28;20040;-72
2022/07/30 13:21:22;;;;;;;1.70;1.10;;;;;;;;;;4936135;28;20046;-69
2022/07/30 13:23:48;;;;;;;1.35;1.10;;;;;;;;;;4947128;28;20031;-74
2022/07/30 13:26:14;;;;;;;1.67;1.20;;;;;;;;;;4947422;28;20035;-75
2022/07/30 13:28:39;;;;;;;4.07;1.10;;;;;;;;;;4947514;28;20455;-73
2022/07/30 13:31:06;;;;;;;1.90;1.10;;;;;;;;;;4946097;28;20075;-71
2022/07/30 13:33:33;;;;;;;2.65;1.10;;;;;;;;;;4949247;28;20055;-72
2022/07/30 13:35:58;;;;;;;2.22;1.23;;;;;;;;;;4946974;28;20030;-71
2022/07/30 13:38:23;;;;;;;2.47;1.20;;;;;;;;;;4948517;28;20035;-71
2022/07/30 13:40:50;;;;;;;2.95;1.20;;;;;;;;;;4947930;28;20126;-72
2022/07/30 13:43:15;;;;;;;1.23;1.00;;;;;;;;;;4945974;28;20062;-75
2022/07/30 13:45:41;;;;;;;2.78;0.93;;;;;;;;;;4941538;28;20495;-73
2022/07/30 13:48:06;;;;;;;3.00;1.30;;;;;;;;;;4942603;28;20027;-71
2022/07/30 13:50:32;;;;;;;2.10;1.00;;;;;;;;;;4945192;28;20031;-72
2022/07/30 13:52:58;;;;;;;4.93;1.50;;;;;;;;;;4943992;28;20086;-74
2022/07/30 13:55:23;;;;;;;1.10;1.00;;;;;;;;;;4943948;28;20046;-74
2022/07/30 13:57:48;;;;;;;1.95;0.98;;;;;;;;;;4949083;28;20381;-72
2022/07/30 14:00:14;;;;;;;3.53;1.30;;;;;;;;;;4946819;28;20039;-70
2022/07/30 14:02:39;;;;;;;2.30;0.98;;;;;;;;;;4945171;28;20118;-73
2022/07/30 14:05:06;;;;;;;3.13;1.48;;;;;;;;;;4946781;28;20495;-73
2022/07/30 14:07:35;;;;;;;2.28;1.20;;;;;;;;;;4963036;28;20045;-76
2022/07/30 14:10:03;;;;;;;2.53;1.50;;;;;;;;;;4964147;28;20535;-73
2022/07/30 14:12:29;;;;;;;1.80;1.10;;;;;;;;;;4925963;28;20566;-74
2022/07/30 14:14:54;;;;;;;2.63;1.13;;;;;;;;;;4928734;28;20029;-70
2022/07/30 14:17:20;;;;;;;1.60;1.10;;;;;;;;;;4949092;28;20042;-71
2022/07/30 14:19:46;;;;;;;1.98;1.40;;;;;;;;;;4928972;28;20056;-69
2022/07/30 14:22:11;;;;;;;5.40;1.48;;;;;;;;;;4929864;28;20028;-72
2022/07/30 14:24:37;;;;;;;7.43;1.40;;;;;;;;;;4926301;28;20055;-74
2022/07/30 14:27:02;;;;;;;3.78;1.05;;;;;;;;;;4925903;28;20120;-71
2022/07/30 14:29:28;;;;;;;3.40;0.98;;;;;;;;;;4933775;29;20031;-71
2022/07/30 14:31:53;;;;;;;3.53;1.17;;;;;;;;;;4931332;28;20063;-72
2022/07/30 14:34:19;;;;;;;2.63;1.27;;;;;;;;;;4946815;28;20042;-72
2022/07/30 14:36:44;;;;;;;2.55;1.17;;;;;;;;;;4941540;28;20043;-72
2022/07/30 14:39:10;;;;;;;4.75;1.15;;;;;;;;;;4932203;28;20059;-71
2022/07/30 14:41:37;;;;;;;1.83;1.00;;;;;;;;;;4935053;29;20032;-73
2022/07/30 14:44:04;;;;;;;1.60;1.00;;;;;;;;;;4948017;28;20125;-72
2022/07/30 14:46:29;;;;;;;3.50;1.20;;;;;;;;;;4953206;28;20038;-72
2022/07/30 14:48:55;;;;;;;3.00;1.17;;;;;;;;;;4953274;28;20043;-71
2022/07/30 14:51:21;;;;;;;3.45;1.30;;;;;;;;;;4963624;28;20048;-71